createdAt,value
2023-03-22T00:00:37.308Z,9.68
2023-03-22T00:01:34.888Z,9.95
2023-03-22T00:02:33.266Z,8.74
2023-03-22T00:03:30.336Z,9.94
2023-03-22T00:04:34.975Z,10.17
2023-03-22T00:05:32.176Z,10.17
2023-03-22T00:06:29.174Z,10.11
2023-03-22T00:07:26.639Z,10.08
2023-03-22T00:08:29.976Z,10.08
2023-03-22T00:09:32.913Z,9.50
2023-03-22T00:10:48.082Z,9.94
2023-03-22T00:11:46.548Z,9.79
2023-03-22T00:12:43.465Z,10.21
2023-03-22T00:13:43.035Z,10.00
2023-03-22T00:14:45.919Z,9.92
2023-03-22T00:15:45.626Z,9.96
2023-03-22T00:16:42.604Z,10.13
2023-03-22T00:17:39.477Z,9.71
2023-03-22T00:18:36.483Z,10.20
2023-03-22T00:19:34.383Z,10.11
2023-03-22T00:20:40.098Z,9.93
2023-03-22T00:21:37.134Z,10.01
2023-03-22T00:22:33.929Z,10.18
2023-03-22T00:23:30.996Z,9.71
2023-03-22T00:24:33.925Z,10.15
2023-03-22T00:25:31.110Z,9.82
2023-03-22T00:26:27.904Z,9.91
2023-03-22T00:27:24.903Z,10.10
2023-03-22T00:28:27.960Z,10.32
2023-03-22T00:29:24.797Z,10.70
2023-03-22T00:30:21.724Z,10.11
2023-03-22T00:31:20.052Z,10.08
2023-03-22T00:32:16.910Z,9.53
2023-03-22T00:33:13.788Z,10.33
2023-03-22T00:34:16.946Z,9.70
2023-03-22T00:35:20.506Z,10.07
2023-03-22T00:36:23.349Z,10.07
2023-03-22T00:37:20.256Z,9.62
2023-03-22T00:38:17.178Z,8.70
2023-03-22T00:39:21.001Z,8.88
2023-03-22T00:40:18.485Z,10.11
2023-03-22T00:41:21.300Z,8.58
2023-03-22T00:42:25.011Z,10.27
2023-03-22T00:43:21.835Z,10.13
2023-03-22T00:44:18.637Z,10.29
2023-03-22T00:45:15.640Z,10.10
2023-03-22T00:46:14.195Z,10.19
2023-03-22T00:47:17.933Z,9.95
2023-03-22T00:48:14.816Z,10.15
2023-03-22T00:49:12.419Z,10.29
2023-03-22T00:50:09.656Z,10.35
2023-03-22T00:51:07.464Z,10.74
2023-03-22T00:52:10.991Z,9.99
2023-03-22T00:53:14.866Z,10.19
2023-03-22T00:54:12.024Z,9.57
2023-03-22T00:55:08.794Z,10.34
2023-03-22T00:56:12.975Z,9.87
2023-03-22T00:57:09.809Z,10.43
2023-03-22T00:58:06.532Z,9.61
2023-03-22T00:59:10.961Z,9.58
2023-03-22T01:00:12.991Z,8.99
2023-03-22T01:01:13.828Z,9.69
2023-03-22T01:02:21.990Z,10.15
2023-03-22T01:03:18.956Z,9.72
2023-03-22T01:04:24.955Z,9.73
2023-03-22T01:05:22.123Z,9.36
2023-03-22T01:06:18.962Z,9.46
2023-03-22T01:07:24.006Z,9.83
2023-03-22T01:08:21.300Z,10.10
2023-03-22T01:09:24.937Z,9.87
2023-03-22T01:10:21.732Z,10.05
2023-03-22T01:11:18.818Z,9.86
2023-03-22T01:12:15.796Z,9.62
2023-03-22T01:13:12.813Z,9.99
2023-03-22T01:14:16.058Z,9.98
2023-03-22T01:15:13.231Z,9.97
2023-03-22T01:16:19.157Z,10.24
2023-03-22T01:17:16.161Z,9.59
2023-03-22T01:18:13.038Z,8.73
2023-03-22T01:19:16.060Z,9.29
2023-03-22T01:20:13.359Z,9.65
2023-03-22T01:21:11.100Z,9.88
2023-03-22T01:22:09.233Z,9.86
2023-03-22T01:23:06.340Z,9.32
2023-03-22T01:24:03.315Z,9.85
2023-03-22T01:25:07.018Z,9.59
2023-03-22T01:26:05.492Z,10.09
2023-03-22T01:27:02.316Z,9.78
2023-03-22T01:27:59.216Z,9.91
2023-03-22T01:29:03.020Z,8.97
2023-03-22T01:29:59.863Z,9.68
2023-03-22T01:31:00.645Z,8.55
2023-03-22T01:31:57.702Z,9.68
2023-03-22T01:32:54.672Z,9.07
2023-03-22T01:33:58.019Z,9.62
2023-03-22T01:35:01.134Z,9.71
2023-03-22T01:36:10.981Z,9.63
2023-03-22T01:37:07.819Z,10.12
2023-03-22T01:38:04.812Z,10.09
2023-03-22T01:39:07.970Z,9.86
2023-03-22T01:40:05.867Z,9.81
2023-03-22T01:41:02.985Z,9.78
2023-03-22T01:41:59.806Z,9.87
2023-03-22T01:42:56.864Z,9.73
2023-03-22T01:44:25.980Z,10.09
2023-03-22T01:45:22.734Z,10.22
2023-03-22T01:46:19.659Z,8.96
2023-03-22T01:47:16.633Z,9.39
2023-03-22T01:48:34.171Z,10.25
2023-03-22T01:49:41.108Z,10.23
2023-03-22T01:50:42.645Z,9.17
2023-03-22T01:51:48.020Z,9.50
2023-03-22T01:52:45.268Z,8.72
2023-03-22T01:53:55.130Z,10.16
2023-03-22T01:55:13.058Z,9.65
2023-03-22T01:56:21.126Z,10.05
2023-03-22T01:57:18.593Z,10.10
2023-03-22T01:58:18.254Z,9.12
2023-03-22T01:59:15.762Z,9.30
2023-03-22T02:00:22.118Z,10.11
2023-03-22T02:01:25.108Z,9.95
2023-03-22T02:02:22.251Z,9.80
2023-03-22T02:03:28.541Z,9.62
2023-03-22T02:04:34.155Z,10.23
2023-03-22T02:05:31.501Z,10.22
2023-03-22T02:06:36.109Z,8.89
2023-03-22T02:07:33.175Z,10.04
2023-03-22T02:08:33.066Z,9.40
2023-03-22T02:09:30.558Z,9.53
2023-03-22T02:10:35.066Z,9.04
2023-03-22T02:11:38.624Z,9.83
2023-03-22T02:12:53.972Z,9.88
2023-03-22T02:14:40.071Z,10.05
2023-03-22T02:15:47.152Z,8.79
2023-03-22T02:16:46.931Z,10.13
2023-03-22T02:18:06.331Z,10.18
2023-03-22T02:19:08.960Z,10.13
2023-03-22T02:20:18.099Z,10.13
2023-03-22T02:21:39.346Z,10.33
2023-03-22T02:23:09.252Z,10.08
2023-03-22T02:24:48.050Z,9.55
2023-03-22T02:26:28.108Z,9.65
2023-03-22T02:27:43.150Z,10.26
2023-03-22T02:28:57.580Z,10.33
2023-03-22T02:30:26.053Z,10.00
2023-03-22T02:31:50.365Z,10.01
2023-03-22T02:33:22.179Z,9.54
2023-03-22T02:34:39.112Z,9.99
2023-03-22T02:35:54.242Z,10.05
2023-03-22T02:37:27.996Z,10.07
2023-03-22T02:38:49.292Z,10.32
2023-03-22T02:40:04.118Z,9.66
2023-03-22T02:41:03.518Z,10.03
2023-03-22T02:42:28.076Z,10.32
2023-03-22T02:43:46.307Z,9.74
2023-03-22T02:45:00.119Z,9.82
2023-03-22T02:46:06.411Z,10.21
2023-03-22T02:47:35.128Z,10.09
2023-03-22T02:48:41.947Z,9.37
2023-03-22T02:49:47.581Z,10.34
2023-03-22T02:51:26.158Z,10.27
2023-03-22T02:52:29.245Z,9.74
2023-03-22T02:54:06.135Z,9.58
2023-03-22T02:55:16.577Z,9.70
2023-03-22T02:56:31.102Z,9.75
2023-03-22T02:57:37.390Z,9.49
2023-03-22T02:58:54.106Z,9.89
2023-03-22T02:59:54.659Z,9.87
2023-03-22T03:00:59.556Z,10.13
2023-03-22T03:02:00.846Z,10.32
2023-03-22T03:03:18.175Z,9.51
2023-03-22T03:04:28.446Z,9.43
2023-03-22T03:05:31.141Z,9.78
2023-03-22T03:06:33.545Z,9.73
2023-03-22T03:07:31.628Z,10.05
2023-03-22T03:08:37.195Z,10.05
2023-03-22T03:09:34.118Z,10.01
2023-03-22T03:10:32.416Z,10.20
2023-03-22T03:11:29.379Z,9.81
2023-03-22T03:12:28.254Z,9.11
2023-03-22T03:13:31.178Z,9.88
2023-03-22T03:14:32.716Z,10.22
2023-03-22T03:15:29.608Z,10.12
2023-03-22T03:16:30.828Z,9.92
2023-03-22T03:17:52.800Z,10.20
2023-03-22T03:19:23.141Z,9.73
2023-03-22T03:21:00.406Z,10.27
2023-03-22T03:21:57.133Z,10.17
2023-03-22T03:23:24.460Z,10.07
2023-03-22T03:24:38.163Z,9.93
2023-03-22T03:26:05.699Z,10.17
2023-03-22T03:27:32.664Z,10.09
2023-03-22T03:28:46.171Z,9.75
2023-03-22T03:29:42.939Z,10.30
2023-03-22T03:30:53.791Z,9.97
2023-03-22T03:32:03.931Z,9.93
2023-03-22T03:33:20.271Z,8.97
2023-03-22T03:34:16.946Z,10.21
2023-03-22T03:35:32.258Z,9.83
2023-03-22T03:36:40.269Z,9.64
2023-03-22T03:37:55.144Z,9.69
2023-03-22T03:38:54.818Z,9.06
2023-03-22T03:40:05.896Z,9.98
2023-03-22T03:41:09.248Z,9.42
2023-03-22T03:42:11.970Z,10.22
2023-03-22T03:43:17.254Z,10.24
2023-03-22T03:44:17.748Z,9.92
2023-03-22T03:45:17.266Z,9.24
2023-03-22T03:46:16.180Z,10.05
2023-03-22T03:47:17.148Z,8.79
2023-03-22T03:48:26.214Z,8.41
2023-03-22T03:49:23.824Z,10.08
2023-03-22T03:50:20.884Z,8.73
2023-03-22T03:51:17.829Z,9.92
2023-03-22T03:52:14.910Z,9.73
2023-03-22T03:53:18.169Z,9.55
2023-03-22T03:54:14.950Z,9.80
2023-03-22T03:55:18.157Z,9.45
2023-03-22T03:56:14.956Z,9.99
2023-03-22T03:57:12.149Z,10.02
2023-03-22T03:58:11.669Z,9.87
2023-03-22T03:59:16.256Z,9.88
2023-03-22T04:00:15.022Z,10.23
2023-03-22T04:01:18.229Z,8.89
2023-03-22T04:02:16.762Z,9.04
2023-03-22T04:03:14.742Z,9.92
2023-03-22T04:04:11.652Z,9.97
2023-03-22T04:05:10.216Z,9.88
2023-03-22T04:06:08.922Z,9.91
2023-03-22T04:07:13.216Z,10.30
2023-03-22T04:08:10.698Z,10.01
2023-03-22T04:09:07.436Z,10.13
2023-03-22T04:10:12.211Z,10.27
2023-03-22T04:11:08.975Z,9.58
2023-03-22T04:12:12.227Z,10.06
2023-03-22T04:13:08.988Z,9.74
2023-03-22T04:14:06.039Z,9.79
2023-03-22T04:15:02.855Z,9.68
2023-03-22T04:16:02.084Z,9.58
2023-03-22T04:17:05.207Z,9.75
2023-03-22T04:18:02.019Z,9.38
2023-03-22T04:18:58.916Z,9.76
2023-03-22T04:19:57.184Z,9.15
2023-03-22T04:20:56.480Z,10.03
2023-03-22T04:22:00.272Z,10.00
2023-03-22T04:22:58.178Z,9.59
2023-03-22T04:23:55.712Z,9.80
2023-03-22T04:24:59.237Z,9.02
2023-03-22T04:26:06.267Z,9.42
2023-03-22T04:27:03.041Z,10.01
2023-03-22T04:28:00.678Z,9.32
2023-03-22T04:28:58.611Z,9.60
2023-03-22T04:29:55.916Z,9.61
2023-03-22T04:30:59.253Z,9.61
2023-03-22T04:31:56.079Z,9.89
2023-03-22T04:32:59.232Z,9.97
2023-03-22T04:35:23.394Z,10.25
2023-03-22T04:36:27.293Z,10.22
2023-03-22T04:37:31.633Z,10.31
2023-03-22T04:38:35.358Z,9.87
2023-03-22T04:39:32.301Z,10.32
2023-03-22T04:40:42.529Z,9.94
2023-03-22T04:41:39.620Z,9.96
2023-03-22T04:42:36.574Z,9.56
2023-03-22T04:43:34.988Z,9.63
2023-03-22T04:44:38.279Z,9.67
2023-03-22T04:45:35.255Z,9.50
2023-03-22T04:46:35.732Z,10.01
2023-03-22T04:47:39.272Z,10.02
2023-03-22T04:48:38.005Z,9.51
2023-03-22T04:49:34.976Z,10.09
2023-03-22T04:50:31.783Z,9.80
2023-03-22T04:51:28.801Z,9.64
2023-03-22T04:52:32.276Z,9.11
2023-03-22T04:53:29.044Z,9.43
2023-03-22T04:54:25.867Z,10.28
2023-03-22T04:55:22.883Z,9.84
2023-03-22T04:56:20.667Z,10.23
2023-03-22T04:57:24.306Z,10.24
2023-03-22T04:58:22.202Z,9.96
2023-03-22T04:59:20.420Z,9.47
2023-03-22T05:00:18.876Z,10.08
2023-03-22T05:01:24.293Z,10.23
2023-03-22T05:02:21.248Z,10.16
2023-03-22T05:03:19.288Z,9.33
2023-03-22T05:04:20.916Z,10.19
2023-03-22T05:05:22.844Z,10.28
2023-03-22T05:06:26.271Z,9.09
2023-03-22T05:07:23.073Z,9.42
2023-03-22T05:08:21.255Z,9.64
2023-03-22T05:09:18.182Z,10.09
2023-03-22T05:10:15.153Z,9.65
2023-03-22T05:11:17.677Z,10.23
2023-03-22T05:12:21.381Z,10.11
2023-03-22T05:13:19.748Z,10.21
2023-03-22T05:14:16.640Z,9.64
2023-03-22T05:15:14.085Z,8.52
2023-03-22T05:16:11.630Z,10.23
2023-03-22T05:17:15.339Z,9.94
2023-03-22T05:18:16.262Z,9.99
2023-03-22T05:19:15.903Z,10.26
2023-03-22T05:20:13.639Z,10.11
2023-03-22T05:21:15.709Z,9.68
2023-03-22T05:22:20.337Z,10.20
2023-03-22T05:23:19.369Z,10.35
2023-03-22T05:24:16.526Z,10.14
2023-03-22T05:25:13.323Z,9.59
2023-03-22T05:26:22.312Z,10.08
2023-03-22T05:27:30.957Z,10.23
2023-03-22T05:28:28.746Z,10.05
2023-03-22T05:29:27.084Z,9.35
2023-03-22T05:30:24.219Z,10.30
2023-03-22T05:31:30.333Z,10.18
2023-03-22T05:32:29.366Z,9.89
2023-03-22T05:33:27.871Z,9.85
2023-03-22T05:34:24.631Z,10.44
2023-03-22T05:35:41.401Z,10.20
2023-03-22T05:36:38.238Z,10.45
2023-03-22T05:37:34.994Z,10.47
2023-03-22T05:38:38.358Z,9.70
2023-03-22T05:39:35.144Z,10.45
2023-03-22T05:40:32.816Z,10.46
2023-03-22T05:41:38.352Z,10.36
2023-03-22T05:42:41.357Z,10.29
2023-03-22T05:43:39.024Z,10.16
2023-03-22T05:44:36.175Z,10.44
2023-03-22T05:45:33.104Z,10.05
2023-03-22T05:46:29.972Z,10.55
2023-03-22T05:47:33.350Z,10.03
2023-03-22T05:48:30.316Z,10.54
2023-03-22T05:49:27.175Z,10.44
2023-03-22T05:50:24.915Z,10.23
2023-03-22T05:51:21.711Z,10.46
2023-03-22T05:52:18.514Z,10.16
2023-03-22T05:53:22.418Z,9.95
2023-03-22T05:54:19.215Z,10.53
2023-03-22T05:55:27.352Z,10.38
2023-03-22T05:56:26.679Z,10.43
2023-03-22T05:57:23.520Z,10.80
2023-03-22T05:58:26.419Z,10.78
2023-03-22T05:59:29.412Z,10.17
2023-03-22T06:00:27.181Z,9.93
2023-03-22T06:01:25.515Z,10.08
2023-03-22T06:02:29.362Z,10.28
2023-03-22T06:03:26.440Z,10.26
2023-03-22T06:04:23.471Z,10.43
2023-03-22T06:05:27.417Z,10.49
2023-03-22T06:06:30.413Z,10.68
2023-03-22T06:07:27.172Z,10.70
2023-03-22T06:08:26.527Z,10.72
2023-03-22T06:09:23.605Z,10.45
2023-03-22T06:10:27.352Z,9.79
2023-03-22T06:11:24.687Z,10.50
2023-03-22T06:12:31.368Z,10.23
2023-03-22T06:13:28.431Z,10.48
2023-03-22T06:14:25.211Z,9.96
2023-03-22T06:15:22.038Z,10.29
2023-03-22T06:16:25.462Z,10.66
2023-03-22T06:17:23.932Z,10.64
2023-03-22T06:18:20.814Z,10.60
2023-03-22T06:19:24.390Z,10.40
2023-03-22T06:20:21.266Z,10.42
2023-03-22T06:21:18.091Z,10.52
2023-03-22T06:22:21.415Z,10.50
2023-03-22T06:23:24.369Z,10.76
2023-03-22T06:24:21.547Z,10.49
2023-03-22T06:25:18.794Z,10.37
2023-03-22T06:26:15.585Z,10.72
2023-03-22T06:27:19.468Z,10.55
2023-03-22T06:28:16.284Z,10.73
2023-03-22T06:29:13.512Z,9.43
2023-03-22T06:30:17.441Z,10.84
2023-03-22T06:31:14.221Z,11.03
2023-03-22T06:32:11.410Z,10.74
2023-03-22T06:33:14.429Z,10.98
2023-03-22T06:34:11.256Z,10.70
2023-03-22T06:35:28.458Z,10.79
2023-03-22T06:36:25.499Z,11.09
2023-03-22T06:37:23.181Z,10.50
2023-03-22T06:38:20.708Z,10.85
2023-03-22T06:39:17.623Z,10.86
2023-03-22T06:40:15.498Z,11.39
2023-03-22T06:41:19.434Z,11.13
2023-03-22T06:42:16.303Z,11.06
2023-03-22T06:43:19.403Z,11.13
2023-03-22T06:44:16.278Z,11.13
2023-03-22T06:45:23.465Z,10.68
2023-03-22T06:46:20.370Z,11.13
2023-03-22T06:47:17.271Z,10.96
2023-03-22T06:48:14.528Z,11.15
2023-03-22T06:49:18.449Z,10.03
2023-03-22T06:50:15.982Z,11.27
2023-03-22T06:51:19.402Z,11.25
2023-03-22T06:52:16.603Z,11.02
2023-03-22T06:53:13.362Z,11.15
2023-03-22T06:54:10.267Z,11.49
2023-03-22T06:55:07.403Z,10.86
2023-03-22T06:56:11.444Z,11.34
2023-03-22T06:57:08.528Z,11.17
2023-03-22T06:58:05.665Z,10.09
2023-03-22T06:59:02.516Z,10.53
2023-03-22T06:59:59.307Z,10.74
2023-03-22T07:00:57.212Z,10.97
2023-03-22T07:02:00.484Z,11.06
2023-03-22T07:02:59.381Z,11.28
2023-03-22T07:03:56.238Z,10.79
2023-03-22T07:04:53.026Z,10.96
2023-03-22T07:05:50.458Z,11.20
2023-03-22T07:06:54.576Z,11.29
2023-03-22T07:07:51.435Z,10.03
2023-03-22T07:08:50.145Z,10.45
2023-03-22T07:09:48.041Z,10.57
2023-03-22T07:10:56.594Z,10.65
2023-03-22T07:11:53.360Z,10.97
2023-03-22T07:12:51.226Z,10.40
2023-03-22T07:13:48.093Z,11.35
2023-03-22T07:14:44.864Z,11.19
2023-03-22T07:15:41.734Z,10.83
2023-03-22T07:16:45.483Z,10.51
2023-03-22T07:17:42.285Z,10.96
2023-03-22T07:18:39.079Z,10.62
2023-03-22T07:19:36.117Z,10.26
2023-03-22T07:20:37.028Z,11.14
2023-03-22T07:21:40.595Z,10.92
2023-03-22T07:22:37.332Z,10.92
2023-03-22T07:23:34.213Z,11.30
2023-03-22T07:24:30.947Z,11.67
2023-03-22T07:25:27.854Z,11.02
2023-03-22T07:26:26.444Z,11.40
2023-03-22T07:27:29.538Z,11.06
2023-03-22T07:28:26.907Z,12.03
2023-03-22T07:29:30.536Z,11.21
2023-03-22T07:30:27.435Z,11.54
2023-03-22T07:31:30.476Z,11.00
2023-03-22T07:32:27.445Z,11.47
2023-03-22T07:33:24.371Z,11.39
2023-03-22T07:34:27.517Z,11.85
2023-03-22T07:35:44.500Z,11.71
2023-03-22T07:36:41.356Z,11.32
2023-03-22T07:37:38.192Z,11.51
2023-03-22T07:38:35.818Z,11.35
2023-03-22T07:39:39.509Z,11.35
2023-03-22T07:40:36.894Z,11.73
2023-03-22T07:41:34.111Z,11.62
2023-03-22T07:42:47.372Z,11.55
2023-03-22T07:44:00.080Z,10.39
2023-03-22T07:45:08.528Z,10.70
2023-03-22T07:46:05.963Z,11.27
2023-03-22T07:47:02.871Z,11.27
2023-03-22T07:48:06.551Z,11.22
2023-03-22T07:49:03.420Z,11.20
2023-03-22T07:50:00.190Z,11.49
2023-03-22T07:50:57.181Z,11.27
2023-03-22T07:52:00.595Z,11.44
2023-03-22T07:52:57.312Z,11.33
2023-03-22T07:53:54.101Z,10.82
2023-03-22T07:54:51.093Z,10.95
2023-03-22T07:55:47.998Z,10.96
2023-03-22T07:56:54.536Z,11.09
2023-03-22T07:57:51.309Z,11.13
2023-03-22T07:58:48.051Z,10.54
2023-03-22T07:59:44.836Z,10.81
2023-03-22T08:00:41.909Z,10.87
2023-03-22T08:01:38.814Z,11.03
2023-03-22T08:02:42.544Z,11.20
2023-03-22T08:03:39.517Z,11.08
2023-03-22T08:04:42.584Z,11.14
2023-03-22T08:05:43.561Z,11.35
2023-03-22T08:06:42.798Z,10.44
2023-03-22T08:07:46.544Z,10.96
2023-03-22T08:08:43.650Z,10.88
2023-03-22T08:09:40.658Z,10.39
2023-03-22T08:10:37.857Z,10.56
2023-03-22T08:11:36.741Z,11.04
2023-03-22T08:12:40.614Z,10.75
2023-03-22T08:13:38.083Z,11.19
2023-03-22T08:14:42.661Z,10.42
2023-03-22T08:15:39.606Z,10.64
2023-03-22T08:16:36.605Z,10.04
2023-03-22T08:17:39.527Z,11.31
2023-03-22T08:18:36.396Z,10.95
2023-03-22T08:19:41.580Z,10.75
2023-03-22T08:20:38.784Z,10.61
2023-03-22T08:21:36.345Z,10.67
2023-03-22T08:22:39.536Z,10.69
2023-03-22T08:23:41.841Z,11.13
2023-03-22T08:24:39.136Z,11.19
2023-03-22T08:25:37.185Z,9.95
2023-03-22T08:26:34.025Z,10.27
2023-03-22T08:27:31.527Z,10.92
2023-03-22T08:28:34.541Z,10.07
2023-03-22T08:29:31.658Z,10.63
2023-03-22T08:30:28.556Z,11.05
2023-03-22T08:31:26.407Z,10.26
2023-03-22T08:32:23.207Z,9.62
2023-03-22T08:33:23.165Z,10.48
2023-03-22T08:34:27.594Z,10.81
2023-03-22T08:35:44.563Z,10.91
2023-03-22T08:36:41.821Z,10.71
2023-03-22T08:37:39.704Z,11.02
2023-03-22T08:38:43.631Z,10.76
2023-03-22T08:39:40.477Z,11.07
2023-03-22T08:40:37.238Z,11.30
2023-03-22T08:41:34.762Z,11.21
2023-03-22T08:42:31.508Z,11.17
2023-03-22T08:43:34.614Z,10.50
2023-03-22T08:44:34.154Z,11.18
2023-03-22T08:45:31.216Z,10.86
2023-03-22T08:46:34.819Z,10.09
2023-03-22T08:47:31.895Z,11.29
2023-03-22T08:48:31.959Z,11.15
2023-03-22T08:49:35.610Z,10.96
2023-03-22T08:50:34.548Z,10.70
2023-03-22T08:51:31.599Z,11.11
2023-03-22T08:52:28.356Z,10.78
2023-03-22T08:53:31.554Z,9.72
2023-03-22T08:54:33.434Z,10.73
2023-03-22T08:55:38.808Z,10.64
2023-03-22T08:56:38.227Z,10.94
2023-03-22T08:57:38.752Z,10.90
2023-03-22T08:58:42.633Z,10.73
2023-03-22T08:59:39.583Z,11.03
2023-03-22T09:00:48.259Z,11.09
2023-03-22T09:01:52.732Z,11.19
2023-03-22T09:02:56.616Z,10.96
2023-03-22T09:03:53.476Z,10.92
2023-03-22T09:04:51.385Z,10.18
2023-03-22T09:05:48.184Z,10.78
2023-03-22T09:06:47.057Z,10.92
2023-03-22T09:07:50.601Z,10.50
2023-03-22T09:08:48.848Z,11.23
2023-03-22T09:09:46.329Z,11.26
2023-03-22T09:10:50.699Z,9.89
2023-03-22T09:11:47.631Z,11.03
2023-03-22T09:12:44.482Z,10.66
2023-03-22T09:13:41.270Z,10.64
2023-03-22T09:14:38.638Z,10.60
2023-03-22T09:15:35.522Z,11.30
2023-03-22T09:16:38.673Z,10.87
2023-03-22T09:17:36.479Z,10.60
2023-03-22T09:18:33.342Z,10.30
2023-03-22T09:19:30.163Z,10.61
2023-03-22T09:20:27.361Z,10.87
2023-03-22T09:21:30.658Z,10.79
2023-03-22T09:22:27.819Z,11.03
2023-03-22T09:23:31.755Z,10.46
2023-03-22T09:24:28.600Z,10.48
2023-03-22T09:25:25.572Z,10.97
2023-03-22T09:26:23.910Z,10.93
2023-03-22T09:27:22.179Z,10.08
2023-03-22T09:28:19.243Z,10.81
2023-03-22T09:29:22.669Z,10.78
2023-03-22T09:30:25.670Z,10.31
2023-03-22T09:31:22.693Z,10.99
2023-03-22T09:32:19.546Z,10.72
2023-03-22T09:33:16.310Z,10.78
2023-03-22T09:34:19.685Z,9.74
2023-03-22T09:35:16.536Z,10.46
2023-03-22T09:36:34.651Z,10.65
2023-03-22T09:37:31.495Z,10.00
2023-03-22T09:38:32.478Z,10.61
2023-03-22T09:39:35.644Z,10.77
2023-03-22T09:40:35.220Z,10.87
2023-03-22T09:41:48.635Z,10.65
2023-03-22T09:42:55.115Z,11.15
2023-03-22T09:44:08.666Z,11.07
2023-03-22T09:45:19.721Z,11.10
2023-03-22T09:46:27.464Z,11.15
2023-03-22T09:47:44.720Z,11.18
2023-03-22T09:48:48.329Z,9.55
2023-03-22T09:49:57.681Z,11.21
2023-03-22T09:50:56.264Z,10.90
2023-03-22T09:51:55.184Z,11.21
2023-03-22T09:52:53.746Z,11.41
2023-03-22T09:53:51.095Z,10.18
2023-03-22T09:54:54.796Z,11.42
2023-03-22T09:55:57.749Z,11.61
2023-03-22T09:57:02.954Z,11.00
2023-03-22T09:58:24.200Z,11.34
2023-03-22T09:59:38.687Z,11.19
2023-03-22T10:00:48.125Z,11.23
2023-03-22T10:02:06.867Z,11.33
2023-03-22T10:03:16.426Z,11.29
2023-03-22T10:04:43.987Z,11.07
2023-03-22T10:05:47.936Z,11.25
2023-03-22T10:07:01.670Z,11.18
2023-03-22T10:08:21.712Z,9.89
2023-03-22T10:09:46.720Z,11.25
2023-03-22T10:10:52.784Z,9.41
2023-03-22T10:12:27.460Z,11.23
2023-03-22T10:13:57.649Z,10.84
2023-03-22T10:15:10.666Z,10.80
2023-03-22T10:16:16.661Z,11.09
2023-03-22T10:17:26.290Z,10.93
2023-03-22T10:18:32.124Z,10.14
2023-03-22T10:19:51.719Z,10.91
2023-03-22T10:21:09.218Z,11.00
2023-03-22T10:22:11.086Z,11.20
2023-03-22T10:23:24.738Z,11.66
2023-03-22T10:24:33.969Z,11.14
2023-03-22T10:25:47.515Z,11.34
2023-03-22T10:26:49.371Z,10.77
2023-03-22T10:27:57.939Z,11.13
2023-03-22T10:29:03.977Z,10.48
2023-03-22T10:30:23.835Z,11.09
2023-03-22T10:31:21.372Z,10.16
2023-03-22T10:32:26.382Z,11.03
2023-03-22T10:33:44.795Z,11.52
2023-03-22T10:34:43.496Z,10.85
2023-03-22T10:36:02.862Z,10.65
2023-03-22T10:37:05.955Z,11.02
2023-03-22T10:38:15.746Z,11.09
2023-03-22T10:39:31.097Z,11.47
2023-03-22T10:40:35.951Z,11.27
2023-03-22T10:41:34.972Z,10.11
2023-03-22T10:42:35.121Z,11.58
2023-03-22T10:45:15.708Z,11.51
2023-03-22T10:46:21.570Z,10.18
2023-03-22T10:47:45.989Z,10.23
2023-03-22T10:48:57.736Z,11.13
2023-03-22T10:49:58.850Z,11.01
2023-03-22T10:50:59.428Z,11.55
2023-03-22T10:52:27.771Z,11.50
2023-03-22T10:53:39.791Z,12.15
2023-03-22T10:54:37.001Z,12.11
2023-03-22T10:55:41.735Z,11.90
2023-03-22T10:56:38.692Z,11.58
2023-03-22T10:57:35.534Z,11.23
2023-03-22T10:58:40.778Z,10.67
2023-03-22T10:59:49.754Z,11.35
2023-03-22T11:00:49.839Z,11.46
2023-03-22T11:01:51.484Z,11.22
2023-03-22T11:02:54.157Z,10.74
2023-03-22T11:04:25.838Z,10.91
2023-03-22T11:05:26.874Z,11.54
2023-03-22T11:06:40.403Z,11.34
2023-03-22T11:07:44.885Z,10.71
2023-03-22T11:08:58.866Z,11.76
2023-03-22T11:10:16.942Z,11.49
2023-03-22T11:11:23.755Z,11.25
2023-03-22T11:12:20.635Z,11.64
2023-03-22T11:13:25.302Z,10.72
2023-03-22T11:14:28.357Z,11.65
2023-03-22T11:15:39.064Z,11.20
2023-03-22T11:16:52.923Z,10.92
2023-03-22T11:18:03.953Z,10.43
2023-03-22T11:19:02.787Z,11.07
2023-03-22T11:20:07.796Z,11.43
2023-03-22T11:21:16.824Z,11.16
2023-03-22T11:22:23.487Z,12.00
2023-03-22T11:23:23.304Z,11.67
2023-03-22T11:24:24.012Z,11.10
2023-03-22T11:25:50.052Z,10.97
2023-03-22T11:29:19.795Z,11.52
2023-03-22T11:30:22.859Z,12.02
2023-03-22T11:31:28.347Z,11.63
2023-03-22T11:32:43.936Z,11.09
2023-03-22T11:33:59.257Z,11.46
2023-03-22T11:35:17.836Z,11.78
2023-03-22T11:36:36.374Z,11.66
2023-03-22T11:37:41.916Z,12.04
2023-03-22T11:38:49.003Z,11.39
2023-03-22T11:39:49.960Z,11.79
2023-03-22T11:40:56.828Z,10.21
2023-03-22T11:41:58.296Z,11.78
2023-03-22T11:43:20.897Z,11.89
2023-03-22T11:44:28.846Z,11.78
2023-03-22T11:45:31.123Z,10.87
2023-03-22T11:46:30.424Z,11.61
2023-03-22T11:47:38.496Z,11.82
2023-03-22T11:48:43.978Z,10.26
2023-03-22T11:49:54.643Z,11.16
2023-03-22T11:51:03.584Z,11.66
2023-03-22T11:52:17.060Z,11.57
2023-03-22T11:53:21.471Z,9.62
2023-03-22T11:54:32.038Z,12.12
2023-03-22T11:55:33.950Z,11.91
2023-03-22T11:56:38.040Z,12.13
2023-03-22T11:57:37.984Z,12.44
2023-03-22T11:58:37.596Z,13.09
2023-03-22T12:00:00.894Z,12.53
2023-03-22T12:01:08.818Z,12.30
2023-03-22T12:02:27.135Z,12.75
2023-03-22T12:03:31.070Z,11.60
2023-03-22T12:04:35.096Z,11.60
2023-03-22T12:05:40.063Z,12.50
2023-03-22T12:06:47.853Z,12.62
2023-03-22T12:07:53.320Z,12.62
2023-03-22T12:08:56.674Z,12.97
2023-03-22T12:10:16.381Z,13.12
2023-03-22T12:11:42.763Z,13.24
2023-03-22T12:12:51.413Z,12.29
2023-03-22T12:13:57.793Z,13.12
2023-03-22T12:15:15.643Z,13.46
2023-03-22T12:16:20.583Z,13.31
2023-03-22T12:17:32.972Z,13.51
2023-03-22T12:18:38.488Z,11.14
2023-03-22T12:19:50.503Z,12.86
2023-03-22T12:21:01.625Z,12.40
2023-03-22T12:22:05.905Z,12.08
2023-03-22T12:23:02.841Z,12.46
2023-03-22T12:24:10.947Z,12.04
2023-03-22T12:25:22.941Z,12.99
2023-03-22T12:26:26.999Z,12.94
2023-03-22T12:27:45.965Z,12.23
2023-03-22T12:28:57.155Z,12.86
2023-03-22T12:30:13.938Z,13.01
2023-03-22T12:31:25.940Z,13.38
2023-03-22T12:32:39.776Z,13.71
2023-03-22T12:33:57.914Z,12.43
2023-03-22T12:35:09.216Z,13.11
2023-03-22T12:36:33.987Z,13.64
2023-03-22T12:37:42.900Z,13.13
2023-03-22T12:38:48.419Z,13.71
2023-03-22T12:39:51.343Z,14.13
2023-03-22T12:40:56.669Z,14.04
2023-03-22T12:42:08.854Z,12.39
2023-03-22T12:43:49.089Z,12.94
2023-03-22T12:44:55.561Z,12.06
2023-03-22T12:46:11.879Z,13.15
2023-03-22T12:47:49.932Z,11.93
2023-03-22T12:48:57.883Z,13.17
2023-03-22T12:49:54.654Z,13.03
2023-03-22T12:51:04.767Z,12.60
2023-03-22T12:52:25.229Z,13.18
2023-03-22T12:53:38.087Z,12.68
2023-03-22T12:54:37.095Z,13.32
2023-03-22T12:55:55.611Z,13.50
2023-03-22T12:56:55.005Z,12.94
2023-03-22T12:58:00.980Z,13.56
2023-03-22T12:59:04.692Z,13.08
2023-03-22T13:00:13.721Z,13.16
2023-03-22T13:01:28.971Z,13.45
2023-03-22T13:02:34.714Z,12.94
2023-03-22T13:03:47.985Z,13.63
2023-03-22T13:04:44.819Z,13.29
2023-03-22T13:05:42.777Z,13.50
2023-03-22T13:06:50.914Z,13.95
2023-03-22T13:07:47.799Z,13.84
2023-03-22T13:09:16.168Z,13.43
2023-03-22T13:10:38.547Z,13.25
2023-03-22T13:11:36.552Z,12.86
2023-03-22T13:12:34.609Z,12.70
2023-03-22T13:13:43.775Z,13.01
2023-03-22T13:14:52.616Z,13.46
2023-03-22T13:16:20.101Z,13.27
2023-03-22T13:17:23.145Z,12.76
2023-03-22T13:18:38.458Z,13.11
2023-03-22T13:19:44.049Z,13.30
2023-03-22T13:20:41.457Z,13.38
2023-03-22T13:21:40.266Z,13.27
2023-03-22T13:22:53.056Z,13.29
2023-03-22T13:24:02.575Z,13.45
2023-03-22T13:25:02.169Z,13.84
2023-03-22T13:26:03.840Z,12.74
2023-03-22T13:27:08.013Z,12.65
2023-03-22T13:28:40.183Z,12.64
2023-03-22T13:29:42.863Z,13.27
2023-03-22T13:30:49.226Z,13.42
2023-03-22T13:31:51.543Z,13.83
2023-03-22T13:33:01.000Z,13.43
2023-03-22T13:34:02.710Z,12.89
2023-03-22T13:35:01.004Z,12.81
2023-03-22T13:36:11.057Z,13.08
2023-03-22T13:37:51.187Z,13.95
2023-03-22T13:38:58.494Z,13.70
2023-03-22T13:40:02.294Z,13.36
2023-03-22T13:41:41.103Z,14.32
2023-03-22T13:42:42.299Z,13.91
2023-03-22T13:43:39.011Z,14.19
2023-03-22T13:44:39.858Z,13.02
2023-03-22T13:45:37.042Z,13.45
2023-03-22T13:46:43.083Z,13.72
2023-03-22T13:48:02.306Z,12.70
2023-03-22T13:49:01.726Z,13.49
2023-03-22T13:50:25.570Z,12.87
2023-03-22T13:51:37.009Z,13.44
2023-03-22T13:52:38.685Z,12.61
2023-03-22T13:53:37.474Z,13.35
2023-03-22T13:54:49.061Z,13.12